createdAt,value
2019-05-01T00:01:36.170Z,18.07
2019-05-01T00:04:30.530Z,18.83
2019-05-01T00:07:08.250Z,17.53
2019-05-01T00:09:41.495Z,19.27
2019-05-01T00:12:13.488Z,19.60
2019-05-01T00:14:45.427Z,18.87
2019-05-01T00:17:19.183Z,16.83
2019-05-01T00:19:51.123Z,18.20
2019-05-01T00:22:23.089Z,18.60
2019-05-01T00:24:55.034Z,16.40
2019-05-01T00:27:27.131Z,18.10
2019-05-01T00:29:59.070Z,17.93
2019-05-01T00:32:31.039Z,20.17
2019-05-01T00:35:03.147Z,18.33
2019-05-01T00:37:35.097Z,18.13
2019-05-01T00:40:07.159Z,18.00
2019-05-01T00:42:39.125Z,16.80
2019-05-01T00:45:11.105Z,16.10
2019-05-01T00:47:43.063Z,17.83
2019-05-01T00:50:15.045Z,17.60
2019-05-01T00:52:46.995Z,18.83
2019-05-01T00:55:37.678Z,18.97
2019-05-01T00:58:16.858Z,19.73
2019-05-01T01:01:02.707Z,19.80
2019-05-01T01:03:34.663Z,19.73
2019-05-01T01:06:07.004Z,18.87
2019-05-01T01:08:38.977Z,18.67
2019-05-01T01:11:10.959Z,19.40
2019-05-01T01:13:42.935Z,20.83
2019-05-01T01:16:14.885Z,20.30
2019-05-01T01:18:46.864Z,20.67
2019-05-01T01:21:18.786Z,19.47
2019-05-01T01:23:50.737Z,20.93
2019-05-01T01:26:22.679Z,19.87
2019-05-01T01:28:54.663Z,18.97
2019-05-01T01:31:26.705Z,18.40
2019-05-01T01:33:58.682Z,18.93
2019-05-01T01:36:30.632Z,19.60
2019-05-01T01:39:03.956Z,19.07
2019-05-01T01:41:36.051Z,19.83
2019-05-01T01:44:30.563Z,21.07
2019-05-01T01:47:02.597Z,19.27
2019-05-01T01:49:34.562Z,20.17
2019-05-01T01:52:06.547Z,18.93
2019-05-01T01:54:38.581Z,21.27
2019-05-01T01:57:10.592Z,21.93
2019-05-01T01:59:43.032Z,20.37
2019-05-01T02:02:37.082Z,23.90
2019-05-01T02:05:14.789Z,21.70
2019-05-01T02:07:46.736Z,20.47
2019-05-01T02:10:18.864Z,21.90
2019-05-01T02:12:50.770Z,23.40
2019-05-01T02:15:22.786Z,20.80
2019-05-01T02:17:54.700Z,22.33
2019-05-01T02:20:26.659Z,21.57
2019-05-01T02:22:58.621Z,21.83
2019-05-01T02:25:32.330Z,21.73
2019-05-01T02:28:32.700Z,20.63
2019-05-01T02:31:27.414Z,21.73
2019-05-01T02:33:47.633Z,19.23
2019-05-01T02:36:20.843Z,20.40
2019-05-01T02:38:54.347Z,20.27
2019-05-01T02:41:31.244Z,18.83
2019-05-01T02:44:11.669Z,18.10
2019-05-01T02:46:46.039Z,21.97
2019-05-01T02:49:24.789Z,20.60
2019-05-01T02:51:57.052Z,23.03
2019-05-01T02:54:28.992Z,24.47
2019-05-01T02:57:12.362Z,21.90
2019-05-01T02:59:46.309Z,21.57
2019-05-01T03:02:18.731Z,21.53
2019-05-01T03:04:51.714Z,23.80
2019-05-01T03:07:25.388Z,23.90
2019-05-01T03:09:57.333Z,21.63
2019-05-01T03:12:30.206Z,21.40
2019-05-01T03:15:04.655Z,20.90
2019-05-01T03:17:47.479Z,22.37
2019-05-01T03:20:39.327Z,24.43
2019-05-01T03:23:18.982Z,22.13
2019-05-01T03:25:50.952Z,24.70
2019-05-01T03:28:23.322Z,23.73
2019-05-01T03:30:55.477Z,25.07
2019-05-01T03:33:27.427Z,23.63
2019-05-01T03:35:59.956Z,23.63
2019-05-01T03:38:32.308Z,23.80
2019-05-01T03:41:04.654Z,24.77
2019-05-01T03:43:36.725Z,22.67
2019-05-01T03:46:08.905Z,22.97
2019-05-01T03:48:41.858Z,24.77
2019-05-01T03:51:13.787Z,21.90
2019-05-01T03:53:45.732Z,21.90
2019-05-01T03:56:17.964Z,22.53
2019-05-01T03:58:50.106Z,21.80
2019-05-01T04:01:54.086Z,21.23
2019-05-01T04:04:28.162Z,21.70
2019-05-01T04:07:00.099Z,23.83
2019-05-01T04:09:32.149Z,21.70
2019-05-01T04:12:04.625Z,21.57
2019-05-01T04:14:39.100Z,22.90
2019-05-01T04:17:26.406Z,25.43
2019-05-01T04:19:58.380Z,22.97
2019-05-01T04:22:30.354Z,21.27
2019-05-01T04:25:02.316Z,24.60
2019-05-01T04:27:36.967Z,23.47
2019-05-01T04:30:31.289Z,24.70
2019-05-01T04:33:06.702Z,23.27
2019-05-01T04:35:56.303Z,24.53
2019-05-01T04:38:28.271Z,26.20
2019-05-01T04:41:00.231Z,23.37
2019-05-01T04:43:32.386Z,22.47
2019-05-01T04:46:04.372Z,23.30
2019-05-01T04:48:36.454Z,24.50
2019-05-01T04:51:08.734Z,23.83
2019-05-01T04:53:41.210Z,21.97
2019-05-01T04:56:13.176Z,21.57
2019-05-01T04:58:45.410Z,23.67
2019-05-01T05:01:17.402Z,23.67
2019-05-01T05:03:49.344Z,27.17
2019-05-01T05:06:21.306Z,24.67
2019-05-01T05:08:53.227Z,24.10
2019-05-01T05:11:27.183Z,23.77
2019-05-01T05:14:09.105Z,28.40
2019-05-01T05:17:03.638Z,23.97
2019-05-01T05:19:35.683Z,22.00
2019-05-01T05:22:07.634Z,22.80
2019-05-01T05:24:39.869Z,21.33
2019-05-01T05:27:12.491Z,24.00
2019-05-01T05:29:44.785Z,22.83
2019-05-01T05:32:18.576Z,21.60
2019-05-01T05:34:52.628Z,21.47
2019-05-01T05:37:29.235Z,21.30
2019-05-01T05:40:01.303Z,20.83
2019-05-01T05:42:33.620Z,21.93
2019-05-01T05:45:06.150Z,22.67
2019-05-01T05:47:38.216Z,21.90
2019-05-01T05:50:12.053Z,19.47
2019-05-01T05:52:50.872Z,19.80
2019-05-01T05:55:35.654Z,19.77
2019-05-01T05:58:26.312Z,19.70
2019-05-01T06:01:07.494Z,20.80
2019-05-01T06:03:57.907Z,20.43
2019-05-01T06:06:50.796Z,20.33
2019-05-01T06:09:32.852Z,19.33
2019-05-01T06:12:32.467Z,21.43
2019-05-01T06:15:30.631Z,21.47
2019-05-01T06:18:34.717Z,20.20
2019-05-01T06:21:16.134Z,19.73
2019-05-01T06:23:57.735Z,21.33
2019-05-01T06:26:37.425Z,20.57
2019-05-01T06:29:05.842Z,21.63
2019-05-01T06:31:38.122Z,19.77
2019-05-01T06:34:10.082Z,20.40
2019-05-01T06:36:44.127Z,20.60
2019-05-01T06:39:15.909Z,19.98
2019-05-01T06:41:47.882Z,20.77
2019-05-01T06:44:44.221Z,19.82
2019-05-01T06:47:30.459Z,20.57
2019-05-01T06:50:10.373Z,20.35
2019-05-01T06:52:42.343Z,21.40
2019-05-01T06:55:14.416Z,21.48
2019-05-01T06:57:46.647Z,21.73
2019-05-01T07:00:18.941Z,24.05
2019-05-01T07:02:51.953Z,23.22
2019-05-01T07:05:24.039Z,24.52
2019-05-01T07:07:56.015Z,24.20
2019-05-01T07:10:31.748Z,24.45
2019-05-01T07:13:04.987Z,24.67
2019-05-01T07:15:37.444Z,23.95
2019-05-01T07:18:11.462Z,22.85
2019-05-01T07:20:51.290Z,23.62
2019-05-01T07:23:21.764Z,24.55
2019-05-01T07:25:53.837Z,22.20
2019-05-01T07:28:28.911Z,24.05
2019-05-01T07:31:05.281Z,22.50
2019-05-01T07:33:37.498Z,23.62
2019-05-01T07:36:15.446Z,25.12
2019-05-01T07:38:44.429Z,23.40
2019-05-01T07:41:16.439Z,22.22
2019-05-01T07:44:14.036Z,22.42
2019-05-01T07:47:05.606Z,23.55
2019-05-01T07:49:56.676Z,23.67
2019-05-01T07:52:28.673Z,23.73
2019-05-01T07:55:00.647Z,23.47
2019-05-01T07:57:34.139Z,23.22
2019-05-01T08:00:12.637Z,24.32
2019-05-01T08:02:44.653Z,23.92
2019-05-01T08:05:16.590Z,23.90
2019-05-01T08:07:48.544Z,25.30
2019-05-01T08:10:21.059Z,24.65
2019-05-01T08:12:55.387Z,22.25
2019-05-01T08:15:32.392Z,24.60
2019-05-01T08:18:27.927Z,23.25
2019-05-01T08:21:26.038Z,23.32
2019-05-01T08:23:58.705Z,24.07
2019-05-01T08:26:30.673Z,23.95
2019-05-01T08:29:42.035Z,22.42
2019-05-01T08:32:24.790Z,22.65
2019-05-01T08:35:02.163Z,21.37
2019-05-01T08:37:34.250Z,21.90
2019-05-01T08:40:06.449Z,21.40
2019-05-01T08:42:42.573Z,20.72
2019-05-01T08:45:47.004Z,19.45
2019-05-01T08:48:41.909Z,20.85
2019-05-01T08:51:13.884Z,19.60
2019-05-01T08:53:45.854Z,19.50
2019-05-01T08:56:21.983Z,18.90
2019-05-01T08:58:51.758Z,15.80
2019-05-01T09:01:23.725Z,18.75
2019-05-01T09:03:55.845Z,18.48
2019-05-01T09:06:34.443Z,17.27
2019-05-01T09:09:02.972Z,17.98
2019-05-01T09:11:36.218Z,16.70
2019-05-01T09:14:09.233Z,16.62
2019-05-01T09:16:41.249Z,15.13
2019-05-01T09:19:13.275Z,16.37
2019-05-01T09:21:45.252Z,15.55
2019-05-01T09:24:17.242Z,16.00
2019-05-01T09:27:03.702Z,14.18
2019-05-01T09:29:42.244Z,15.55
2019-05-01T09:32:14.218Z,15.88
2019-05-01T09:34:46.256Z,16.07
2019-05-01T09:37:18.232Z,13.78
2019-05-01T09:39:50.197Z,13.53
2019-05-01T09:42:23.687Z,12.82
2019-05-01T09:44:56.318Z,14.00
2019-05-01T09:47:28.281Z,13.45
2019-05-01T09:50:00.274Z,13.95
2019-05-01T09:52:43.121Z,13.40
2019-05-01T09:55:23.203Z,13.18
2019-05-01T09:57:52.609Z,15.00
2019-05-01T10:00:28.623Z,12.68
2019-05-01T10:03:00.641Z,13.25
2019-05-01T10:05:32.629Z,12.45
2019-05-01T10:08:05.502Z,12.05
2019-05-01T10:10:37.609Z,12.93
2019-05-01T10:13:09.676Z,13.05
2019-05-01T10:15:41.708Z,11.40
2019-05-01T10:18:13.791Z,10.58
2019-05-01T10:20:45.745Z,10.30
2019-05-01T10:23:17.680Z,10.90
2019-05-01T10:25:53.039Z,12.43
2019-05-01T10:28:49.961Z,10.70
2019-05-01T10:31:42.850Z,10.03
2019-05-01T10:34:23.379Z,10.25
2019-05-01T10:36:55.856Z,10.30
2019-05-01T10:39:30.190Z,10.43
2019-05-01T10:42:02.003Z,10.40
2019-05-01T10:44:33.941Z,9.23
2019-05-01T10:47:05.939Z,10.15
2019-05-01T10:49:37.919Z,10.70
2019-05-01T10:52:14.289Z,11.78
2019-05-01T10:54:46.412Z,10.98
2019-05-01T10:57:17.621Z,10.25
2019-05-01T10:59:49.550Z,9.93
2019-05-01T11:02:21.561Z,9.43
2019-05-01T11:04:53.536Z,9.28
2019-05-01T11:07:25.535Z,9.78
2019-05-01T11:09:57.473Z,11.03
2019-05-01T11:12:29.435Z,9.43
2019-05-01T11:15:01.394Z,9.40
2019-05-01T11:17:33.392Z,10.55
2019-05-01T11:20:05.811Z,17.20
2019-05-01T11:22:37.807Z,10.95
2019-05-01T11:25:10.189Z,14.85
2019-05-01T11:27:42.172Z,9.33
2019-05-01T11:30:14.407Z,8.78
2019-05-01T11:33:01.827Z,13.68
2019-05-01T11:36:09.760Z,11.45
2019-05-01T11:38:45.954Z,10.70
2019-05-01T11:41:22.020Z,10.05
2019-05-01T11:43:53.962Z,9.70
2019-05-01T11:46:26.378Z,8.53
2019-05-01T11:48:58.465Z,7.80
2019-05-01T11:51:30.445Z,8.58
2019-05-01T11:54:02.545Z,9.58
2019-05-01T11:56:34.507Z,9.48
2019-05-01T11:59:06.490Z,10.35
2019-05-01T12:01:38.492Z,8.80
2019-05-01T12:04:10.456Z,12.35
2019-05-01T12:06:42.384Z,9.35
2019-05-01T12:09:14.394Z,9.23
2019-05-01T12:11:48.273Z,8.60
2019-05-01T12:14:20.291Z,7.42
2019-05-01T12:17:14.643Z,9.38
2019-05-01T12:19:46.776Z,8.35
2019-05-01T12:22:18.751Z,6.62
2019-05-01T12:24:50.758Z,8.35
2019-05-01T12:27:22.767Z,8.70
2019-05-01T12:29:54.749Z,9.00
2019-05-01T12:32:26.776Z,8.23
2019-05-01T12:34:58.786Z,9.55
2019-05-01T12:37:35.755Z,8.23
2019-05-01T12:40:09.022Z,9.85
2019-05-01T12:42:41.086Z,7.60
2019-05-01T12:45:14.044Z,8.05
2019-05-01T12:47:51.089Z,8.58
2019-05-01T12:50:23.100Z,7.50
2019-05-01T12:53:23.586Z,8.15
2019-05-01T12:56:15.191Z,8.05
2019-05-01T12:58:49.287Z,6.75
2019-05-01T13:01:21.290Z,8.80
2019-05-01T13:03:53.293Z,7.80
2019-05-01T13:06:25.283Z,6.75
2019-05-01T13:08:57.264Z,8.15
2019-05-01T13:11:29.454Z,8.43
2019-05-01T13:14:01.442Z,7.95
2019-05-01T13:16:33.481Z,9.73
2019-05-01T13:19:05.465Z,8.73
2019-05-01T13:21:37.443Z,7.40
2019-05-01T13:24:09.413Z,7.53
2019-05-01T13:26:53.878Z,8.10
2019-05-01T13:29:48.458Z,6.92
2019-05-01T13:32:55.064Z,7.15
2019-05-01T13:35:27.022Z,7.28
2019-05-01T13:37:59.017Z,7.10
2019-05-01T13:40:31.177Z,7.53
2019-05-01T13:43:03.181Z,7.15
2019-05-01T13:45:35.243Z,11.18
2019-05-01T13:48:07.319Z,7.95
2019-05-01T13:50:39.250Z,7.55
2019-05-01T13:53:11.327Z,8.40
2019-05-01T13:55:43.281Z,9.98
2019-05-01T13:58:15.336Z,8.35
2019-05-01T14:00:47.296Z,9.18
2019-05-01T14:03:19.327Z,7.00
2019-05-01T14:05:51.346Z,7.08
2019-05-01T14:08:23.355Z,7.08
2019-05-01T14:10:55.338Z,7.60
2019-05-01T14:13:27.344Z,7.22
2019-05-01T14:15:59.333Z,7.72
2019-05-01T14:18:31.301Z,7.20
2019-05-01T14:21:37.398Z,7.12
2019-05-01T14:24:28.448Z,7.37
2019-05-01T14:27:00.438Z,7.10
2019-05-01T14:29:32.410Z,8.00
2019-05-01T14:32:04.383Z,8.08
2019-05-01T14:34:36.383Z,8.45
2019-05-01T14:37:08.400Z,8.23
2019-05-01T14:39:40.378Z,10.15
2019-05-01T14:42:12.354Z,8.73
2019-05-01T14:44:44.327Z,8.28
2019-05-01T14:47:16.427Z,8.18
2019-05-01T14:49:48.485Z,7.53
2019-05-01T14:52:20.427Z,9.05
2019-05-01T14:54:52.401Z,6.97
2019-05-01T14:57:24.361Z,7.78
2019-05-01T14:59:56.355Z,7.62
2019-05-01T15:02:28.368Z,6.20
2019-05-01T15:05:00.366Z,7.20
2019-05-01T15:07:42.775Z,7.47
2019-05-01T15:10:06.335Z,6.78
2019-05-01T15:12:39.497Z,6.50
2019-05-01T15:15:32.381Z,7.58
2019-05-01T15:18:10.411Z,7.28
2019-05-01T15:20:42.466Z,6.97
2019-05-01T15:23:14.412Z,6.62
2019-05-01T15:25:46.408Z,7.15
2019-05-01T15:28:18.406Z,6.42
2019-05-01T15:30:51.118Z,6.12
2019-05-01T15:33:23.072Z,6.53
2019-05-01T15:35:55.084Z,6.47
2019-05-01T15:38:27.091Z,6.28
2019-05-01T15:41:08.393Z,6.00
2019-05-01T15:43:50.933Z,6.78
2019-05-01T15:46:22.948Z,6.15
2019-05-01T15:48:54.916Z,8.53
2019-05-01T15:51:26.949Z,7.30
2019-05-01T15:53:58.915Z,6.58
2019-05-01T15:56:30.908Z,5.80
2019-05-01T15:59:02.864Z,6.22
2019-05-01T16:01:34.856Z,6.12
2019-05-01T16:04:06.830Z,6.28
2019-05-01T16:06:38.805Z,5.28
2019-05-01T16:09:10.901Z,5.65
2019-05-01T16:12:11.742Z,7.40
2019-05-01T16:14:48.579Z,6.72
2019-05-01T16:17:20.597Z,6.15
2019-05-01T16:19:52.621Z,6.20
2019-05-01T16:22:24.641Z,6.90
2019-05-01T16:24:56.634Z,5.90
2019-05-01T16:27:28.649Z,6.08
2019-05-01T16:30:00.623Z,6.00
2019-05-01T16:32:32.690Z,5.05
2019-05-01T16:35:04.818Z,5.42
2019-05-01T16:37:36.905Z,5.33
2019-05-01T16:40:21.658Z,5.95
2019-05-01T16:42:53.696Z,6.03
2019-05-01T16:45:25.703Z,4.78
2019-05-01T16:47:57.824Z,5.20
2019-05-01T16:50:29.765Z,4.60
2019-05-01T16:53:01.841Z,6.10
2019-05-01T16:55:33.848Z,5.70
2019-05-01T16:58:07.877Z,6.05
2019-05-01T17:00:57.278Z,4.95
2019-05-01T17:03:48.927Z,6.20
2019-05-01T17:06:49.451Z,6.22
2019-05-01T17:09:36.628Z,5.35
2019-05-01T17:12:10.916Z,5.20
2019-05-01T17:14:42.570Z,4.83
2019-05-01T17:17:18.060Z,5.83
2019-05-01T17:19:50.122Z,5.47
2019-05-01T17:22:22.105Z,5.78
2019-05-01T17:24:54.145Z,6.08
2019-05-01T17:27:26.133Z,5.60
2019-05-01T17:29:58.197Z,5.30
2019-05-01T17:32:31.009Z,5.25
2019-05-01T17:35:06.628Z,5.25
2019-05-01T17:37:37.324Z,5.83
2019-05-01T17:40:09.705Z,4.83
2019-05-01T17:42:41.743Z,5.00
2019-05-01T17:45:13.897Z,4.83
2019-05-01T17:47:45.892Z,5.35
2019-05-01T17:50:21.167Z,6.03
2019-05-01T17:52:51.899Z,8.25
2019-05-01T17:55:24.001Z,8.68
2019-05-01T17:57:56.032Z,7.83
2019-05-01T18:00:47.656Z,7.40
2019-05-01T18:03:38.216Z,6.20
2019-05-01T18:06:27.974Z,6.17
2019-05-01T18:09:03.105Z,7.87
2019-05-01T18:11:33.944Z,6.58
2019-05-01T18:14:06.098Z,7.22
2019-05-01T18:16:38.129Z,6.58
2019-05-01T18:19:10.362Z,6.50
2019-05-01T18:21:46.861Z,6.62
2019-05-01T18:24:44.789Z,5.92
2019-05-01T18:27:35.071Z,5.97
2019-05-01T18:30:09.532Z,6.25
2019-05-01T18:32:47.487Z,6.80
2019-05-01T18:35:16.261Z,7.25
2019-05-01T18:38:06.475Z,5.90
2019-05-01T18:40:45.799Z,6.03
2019-05-01T18:43:17.916Z,5.58
2019-05-01T18:45:54.538Z,6.10
2019-05-01T18:48:26.608Z,5.95
2019-05-01T18:50:58.675Z,5.87
2019-05-01T18:53:30.810Z,5.92
2019-05-01T18:56:05.628Z,6.27
2019-05-01T18:58:36.963Z,5.83
2019-05-01T19:01:10.738Z,5.93
2019-05-01T19:03:44.196Z,5.37
2019-05-01T19:06:16.505Z,5.90
2019-05-01T19:08:48.592Z,6.57
2019-05-01T19:11:20.857Z,6.80
2019-05-01T19:13:52.912Z,6.80
2019-05-01T19:16:25.058Z,8.73
2019-05-01T19:18:57.212Z,6.73
2019-05-01T19:21:29.820Z,7.63
2019-05-01T19:24:02.786Z,6.77
2019-05-01T19:26:38.205Z,6.77
2019-05-01T19:29:09.821Z,6.90
2019-05-01T19:31:42.015Z,6.97
2019-05-01T19:34:14.177Z,6.47
2019-05-01T19:36:46.426Z,6.63
2019-05-01T19:39:18.545Z,8.73
2019-05-01T19:41:51.400Z,7.27
2019-05-01T19:44:24.676Z,7.83
2019-05-01T19:46:56.740Z,7.93
2019-05-01T19:49:29.795Z,7.40
2019-05-01T19:52:02.933Z,7.23
2019-05-01T19:54:35.036Z,7.60
2019-05-01T19:57:07.023Z,8.43
2019-05-01T19:59:39.154Z,8.27
2019-05-01T20:02:12.471Z,7.40
2019-05-01T20:04:45.274Z,8.33
2019-05-01T20:07:21.432Z,8.07
2019-05-01T20:09:57.082Z,7.23
2019-05-01T20:12:29.550Z,6.93
2019-05-01T20:15:00.621Z,7.20
2019-05-01T20:17:32.653Z,8.27
2019-05-01T20:20:04.845Z,8.23
2019-05-01T20:22:36.951Z,6.70
2019-05-01T20:25:08.987Z,7.43
2019-05-01T20:27:42.834Z,7.80
2019-05-01T20:30:15.190Z,7.93
2019-05-01T20:32:47.190Z,7.70
2019-05-01T20:35:19.259Z,8.40
2019-05-01T20:37:51.277Z,7.77
2019-05-01T20:40:23.358Z,7.33
2019-05-01T20:42:55.393Z,6.60
2019-05-01T20:45:27.479Z,6.80
2019-05-01T20:47:59.483Z,6.97
2019-05-01T20:50:31.583Z,7.23
2019-05-01T20:53:03.850Z,7.60
2019-05-01T20:55:35.871Z,7.63
2019-05-01T20:58:21.079Z,8.23
2019-05-01T21:00:57.708Z,8.07
2019-05-01T21:03:30.465Z,7.50
2019-05-01T21:06:23.753Z,8.63
2019-05-01T21:09:08.331Z,7.40
2019-05-01T21:11:47.259Z,7.73
2019-05-01T21:14:22.616Z,8.07
2019-05-01T21:16:51.032Z,7.77
2019-05-01T21:19:23.839Z,8.73
2019-05-01T21:21:56.966Z,8.23
2019-05-01T21:24:28.960Z,8.43
2019-05-01T21:27:00.938Z,8.80
2019-05-01T21:29:34.308Z,9.57
2019-05-01T21:32:06.452Z,8.80
2019-05-01T21:34:38.470Z,9.10
2019-05-01T21:37:10.465Z,9.10
2019-05-01T21:39:43.642Z,8.37
2019-05-01T21:42:16.415Z,8.60
2019-05-01T21:44:48.350Z,8.60
2019-05-01T21:47:20.370Z,8.40
2019-05-01T21:49:52.975Z,8.50
2019-05-01T21:52:26.801Z,8.90
2019-05-01T21:54:58.993Z,8.37
2019-05-01T21:57:33.143Z,8.43
2019-05-01T22:00:05.688Z,9.17
2019-05-01T22:02:41.650Z,9.57
2019-05-01T22:05:12.184Z,8.60
2019-05-01T22:07:44.172Z,7.77
2019-05-01T22:10:16.174Z,9.23
2019-05-01T22:12:50.806Z,9.77
2019-05-01T22:15:29.400Z,9.07
2019-05-01T22:18:19.634Z,8.63
2019-05-01T22:21:04.377Z,9.10
2019-05-01T22:23:55.990Z,9.13
2019-05-01T22:26:29.778Z,8.87
2019-05-01T22:29:03.666Z,9.10
2019-05-01T22:31:57.472Z,9.03
2019-05-01T22:34:41.600Z,8.87
2019-05-01T22:37:13.576Z,10.20
2019-05-01T22:39:49.343Z,9.20
2019-05-01T22:42:21.355Z,9.40
2019-05-01T22:44:53.366Z,9.83
2019-05-01T22:47:25.388Z,9.77
2019-05-01T22:49:57.375Z,9.97
2019-05-01T22:52:29.365Z,9.53
2019-05-01T22:55:01.342Z,10.47
2019-05-01T22:57:33.430Z,9.50
2019-05-01T23:00:06.470Z,10.10
2019-05-01T23:02:40.091Z,9.80
2019-05-01T23:05:12.287Z,10.50
2019-05-01T23:07:44.277Z,9.93
2019-05-01T23:10:16.252Z,10.53
2019-05-01T23:12:48.208Z,10.03
2019-05-01T23:15:22.856Z,10.23
2019-05-01T23:17:54.797Z,10.90
2019-05-01T23:20:26.862Z,10.73
2019-05-01T23:22:58.797Z,9.80
2019-05-01T23:25:30.794Z,10.90
2019-05-01T23:28:04.173Z,10.70
2019-05-01T23:30:36.697Z,9.97
2019-05-01T23:33:08.662Z,10.10
2019-05-01T23:35:40.651Z,11.10
2019-05-01T23:38:12.631Z,10.40
2019-05-01T23:40:46.201Z,10.53
2019-05-01T23:43:18.614Z,10.17
2019-05-01T23:45:50.622Z,10.90
2019-05-01T23:48:22.621Z,13.10
2019-05-01T23:50:54.600Z,11.30
2019-05-01T23:53:26.665Z,11.83
2019-05-01T23:56:00.070Z,11.30
2019-05-01T23:58:32.501Z,10.97
